createdAt,value
2019-03-28T00:00:21.907Z,1018.68
2019-03-28T00:01:21.903Z,1018.69
2019-03-28T00:02:21.894Z,1018.66
2019-03-28T00:03:21.890Z,1018.71
2019-03-28T00:04:21.894Z,1018.68
2019-03-28T00:05:21.872Z,1018.67
2019-03-28T00:06:21.894Z,1018.67
2019-03-28T00:07:24.253Z,1018.69
2019-03-28T00:08:21.819Z,1018.69
2019-03-28T00:09:21.816Z,1018.68
2019-03-28T00:10:21.825Z,1018.65
2019-03-28T00:11:21.794Z,1018.72
2019-03-28T00:12:21.778Z,1018.70
2019-03-28T00:13:21.772Z,1018.67
2019-03-28T00:14:21.765Z,1018.68
2019-03-28T00:15:21.751Z,1018.71
2019-03-28T00:16:21.757Z,1018.68
2019-03-28T00:17:21.725Z,1018.70
2019-03-28T00:18:21.713Z,1018.68
2019-03-28T00:19:21.726Z,1018.68
2019-03-28T00:20:21.690Z,1018.65
2019-03-28T00:21:21.704Z,1018.66
2019-03-28T00:22:21.675Z,1018.65
2019-03-28T00:23:21.662Z,1018.65
2019-03-28T00:24:22.290Z,1018.70
2019-03-28T00:25:21.634Z,1018.66
2019-03-28T00:26:30.003Z,1018.68
2019-03-28T00:27:22.617Z,1018.72
2019-03-28T00:28:21.609Z,1018.69
2019-03-28T00:29:21.611Z,1018.68
2019-03-28T00:30:21.583Z,1018.70
2019-03-28T00:31:21.572Z,1018.73
2019-03-28T00:32:21.584Z,1018.69
2019-03-28T00:33:21.557Z,1018.68
2019-03-28T00:34:21.543Z,1018.75
2019-03-28T00:35:21.534Z,1018.74
2019-03-28T00:36:21.523Z,1018.71
2019-03-28T00:37:21.529Z,1018.72
2019-03-28T00:38:21.497Z,1018.75
2019-03-28T00:39:21.485Z,1018.75
2019-03-28T00:40:21.486Z,1018.74
2019-03-28T00:41:21.469Z,1018.73
2019-03-28T00:42:21.456Z,1018.71
2019-03-28T00:43:21.469Z,1018.71
2019-03-28T00:44:21.433Z,1018.69
2019-03-28T00:45:21.438Z,1018.69
2019-03-28T00:46:21.423Z,1018.68
2019-03-28T00:47:21.403Z,1018.70
2019-03-28T00:48:21.392Z,1018.70
2019-03-28T00:49:21.400Z,1018.69
2019-03-28T00:50:21.366Z,1018.72
2019-03-28T00:51:21.356Z,1018.72
2019-03-28T00:52:21.346Z,1018.70
2019-03-28T00:53:21.338Z,1018.71
2019-03-28T00:54:21.351Z,1018.72
2019-03-28T00:55:21.315Z,1018.75
2019-03-28T00:56:21.308Z,1018.75
2019-03-28T00:57:21.290Z,1018.75
2019-03-28T00:58:21.281Z,1018.78
2019-03-28T00:59:21.272Z,1018.77
2019-03-28T01:00:21.280Z,1018.76
2019-03-28T01:01:21.265Z,1018.75
2019-03-28T01:02:21.369Z,1018.72
2019-03-28T01:03:21.226Z,1018.72
2019-03-28T01:04:21.213Z,1018.69
2019-03-28T01:05:21.226Z,1018.71
2019-03-28T01:06:21.195Z,1018.74
2019-03-28T01:07:21.182Z,1018.72
2019-03-28T01:08:21.174Z,1018.73
2019-03-28T01:09:21.162Z,1018.66
2019-03-28T01:10:21.184Z,1018.69
2019-03-28T01:11:21.142Z,1018.67
2019-03-28T01:12:21.130Z,1018.68
2019-03-28T01:13:21.116Z,1018.66
2019-03-28T01:14:21.104Z,1018.63
2019-03-28T01:15:21.101Z,1018.68
2019-03-28T01:16:21.111Z,1018.62
2019-03-28T01:17:21.075Z,1018.59
2019-03-28T01:18:21.061Z,1018.62
2019-03-28T01:19:21.050Z,1018.62
2019-03-28T01:20:21.045Z,1018.58
2019-03-28T01:21:21.036Z,1018.57
2019-03-28T01:22:21.042Z,1018.56
2019-03-28T01:23:21.169Z,1018.60
2019-03-28T01:24:21.001Z,1018.55
2019-03-28T01:25:21.009Z,1018.56
2019-03-28T01:26:20.983Z,1018.51
2019-03-28T01:27:20.981Z,1018.55
2019-03-28T01:28:20.954Z,1018.49
2019-03-28T01:29:20.945Z,1018.50
2019-03-28T01:30:20.937Z,1018.48
2019-03-28T01:31:20.920Z,1018.46
2019-03-28T01:32:20.935Z,1018.46
2019-03-28T01:33:20.905Z,1018.43
2019-03-28T01:34:20.896Z,1018.49
2019-03-28T01:35:20.883Z,1018.46
2019-03-28T01:36:20.871Z,1018.42
2019-03-28T01:37:20.857Z,1018.45
2019-03-28T01:38:20.864Z,1018.46
2019-03-28T01:39:20.836Z,1018.48
2019-03-28T01:40:20.824Z,1018.44
2019-03-28T01:41:20.834Z,1018.40
2019-03-28T01:42:20.807Z,1018.40
2019-03-28T01:43:20.818Z,1018.38
2019-03-28T01:44:20.785Z,1018.40
2019-03-28T01:45:20.773Z,1018.39
2019-03-28T01:46:20.759Z,1018.30
2019-03-28T01:47:20.756Z,1018.32
2019-03-28T01:48:20.765Z,1018.37
2019-03-28T01:49:20.727Z,1018.32
2019-03-28T01:50:20.713Z,1018.32
2019-03-28T01:51:20.704Z,1018.31
2019-03-28T01:52:21.341Z,1018.28
2019-03-28T01:53:20.686Z,1018.29
2019-03-28T01:54:20.702Z,1018.29
2019-03-28T01:55:21.149Z,1018.21
2019-03-28T01:56:20.652Z,1018.29
2019-03-28T01:57:20.640Z,1018.30
2019-03-28T01:58:20.628Z,1018.32
2019-03-28T01:59:21.227Z,1018.25
2019-03-28T02:00:20.632Z,1018.28
2019-03-28T02:01:20.598Z,1018.25
2019-03-28T02:02:20.590Z,1018.27
2019-03-28T02:03:20.572Z,1018.26
2019-03-28T02:04:20.564Z,1018.30
2019-03-28T02:05:20.555Z,1018.34
2019-03-28T02:06:20.572Z,1018.32
2019-03-28T02:07:20.535Z,1018.30
2019-03-28T02:08:20.538Z,1018.36
2019-03-28T02:09:20.510Z,1018.32
2019-03-28T02:10:20.496Z,1018.38
2019-03-28T02:11:20.487Z,1018.33
2019-03-28T02:12:20.501Z,1018.35
2019-03-28T02:13:20.469Z,1018.32
2019-03-28T02:14:20.461Z,1018.36
2019-03-28T02:15:20.443Z,1018.36
2019-03-28T02:16:21.018Z,1018.38
2019-03-28T02:17:20.449Z,1018.38
2019-03-28T02:18:20.416Z,1018.37
2019-03-28T02:19:20.400Z,1018.39
2019-03-28T02:20:20.390Z,1018.39
2019-03-28T02:21:20.382Z,1018.41
2019-03-28T02:22:20.372Z,1018.40
2019-03-28T02:23:20.379Z,1018.35
2019-03-28T02:24:20.349Z,1018.32
2019-03-28T02:25:20.352Z,1018.35
2019-03-28T02:26:20.322Z,1018.42
2019-03-28T02:27:24.370Z,1018.38
2019-03-28T02:28:20.334Z,1018.35
2019-03-28T02:29:20.297Z,1018.44
2019-03-28T02:30:20.292Z,1018.43
2019-03-28T02:31:20.275Z,1018.47
2019-03-28T02:32:20.263Z,1018.34
2019-03-28T02:33:20.250Z,1018.38
2019-03-28T02:34:20.269Z,1018.40
2019-03-28T02:35:20.233Z,1018.35
2019-03-28T02:36:20.222Z,1018.37
2019-03-28T02:37:20.206Z,1018.36
2019-03-28T02:38:20.194Z,1018.35
2019-03-28T02:39:20.182Z,1018.35
2019-03-28T02:40:20.191Z,1018.36
2019-03-28T02:41:20.165Z,1018.35
2019-03-28T02:42:20.156Z,1018.35
2019-03-28T02:43:20.170Z,1018.44
2019-03-28T02:44:20.156Z,1018.43
2019-03-28T02:45:20.118Z,1018.40
2019-03-28T02:46:20.114Z,1018.38
2019-03-28T02:47:20.115Z,1018.45
2019-03-28T02:48:20.086Z,1018.42
2019-03-28T02:49:20.157Z,1018.39
2019-03-28T02:50:20.094Z,1018.44
2019-03-28T02:51:20.052Z,1018.46
2019-03-28T02:52:20.043Z,1018.43
2019-03-28T02:53:20.036Z,1018.46
2019-03-28T02:54:20.044Z,1018.46
2019-03-28T02:55:20.015Z,1018.47
2019-03-28T02:56:20.011Z,1018.45
2019-03-28T02:57:19.989Z,1018.47
2019-03-28T02:58:19.976Z,1018.51
2019-03-28T02:59:19.986Z,1018.50
2019-03-28T03:00:20.809Z,1018.46
2019-03-28T03:01:19.975Z,1018.50
2019-03-28T03:02:19.938Z,1018.50
2019-03-28T03:03:19.931Z,1018.51
2019-03-28T03:04:19.914Z,1018.51
2019-03-28T03:05:19.902Z,1018.50
2019-03-28T03:06:19.889Z,1018.50
2019-03-28T03:07:19.911Z,1018.53
2019-03-28T03:08:19.872Z,1018.49
2019-03-28T03:09:19.884Z,1018.50
2019-03-28T03:10:19.848Z,1018.51
2019-03-28T03:11:19.836Z,1018.49
2019-03-28T03:12:19.826Z,1018.51
2019-03-28T03:13:20.105Z,1018.54
2019-03-28T03:14:19.809Z,1018.50
2019-03-28T03:15:19.823Z,1018.54
2019-03-28T03:16:19.786Z,1018.50
2019-03-28T03:17:19.773Z,1018.55
2019-03-28T03:18:21.556Z,1018.55
2019-03-28T03:19:19.755Z,1018.56
2019-03-28T03:20:19.739Z,1018.50
2019-03-28T03:21:19.747Z,1018.60
2019-03-28T03:22:19.723Z,1018.59
2019-03-28T03:23:20.094Z,1018.65
2019-03-28T03:24:19.718Z,1018.57
2019-03-28T03:25:19.687Z,1018.62
2019-03-28T03:26:19.675Z,1018.57
2019-03-28T03:27:19.669Z,1018.55
2019-03-28T03:28:19.650Z,1018.58
2019-03-28T03:29:19.660Z,1018.61
2019-03-28T03:30:19.636Z,1018.61
2019-03-28T03:31:21.345Z,1018.61
2019-03-28T03:32:19.684Z,1018.64
2019-03-28T03:33:19.614Z,1018.60
2019-03-28T03:34:19.606Z,1018.64
2019-03-28T03:35:19.582Z,1018.66
2019-03-28T03:36:19.596Z,1018.68
2019-03-28T03:37:19.585Z,1018.67
2019-03-28T03:38:19.542Z,1018.68
2019-03-28T03:39:19.537Z,1018.67
2019-03-28T03:40:19.524Z,1018.70
2019-03-28T03:41:19.517Z,1018.70
2019-03-28T03:42:19.501Z,1018.70
2019-03-28T03:43:19.507Z,1018.73
2019-03-28T03:44:19.480Z,1018.72
2019-03-28T03:45:19.470Z,1018.69
2019-03-28T03:46:19.466Z,1018.74
2019-03-28T03:47:19.760Z,1018.71
2019-03-28T03:48:19.465Z,1018.72
2019-03-28T03:49:19.429Z,1018.74
2019-03-28T03:50:19.413Z,1018.76
2019-03-28T03:51:19.400Z,1018.76
2019-03-28T03:52:19.393Z,1018.74
2019-03-28T03:53:19.389Z,1018.76
2019-03-28T03:54:19.392Z,1018.75
2019-03-28T03:55:19.368Z,1018.76
2019-03-28T03:56:19.348Z,1018.75
2019-03-28T03:57:19.341Z,1018.75
2019-03-28T03:58:19.392Z,1018.76
2019-03-28T03:59:19.340Z,1018.77
2019-03-28T04:00:19.308Z,1018.80
2019-03-28T04:01:19.301Z,1018.78
2019-03-28T04:02:19.290Z,1018.81
2019-03-28T04:03:19.271Z,1018.77
2019-03-28T04:04:19.282Z,1018.75
2019-03-28T04:05:19.274Z,1018.82
2019-03-28T04:06:19.251Z,1018.77
2019-03-28T04:07:19.233Z,1018.78
2019-03-28T04:08:19.225Z,1018.79
2019-03-28T04:09:19.228Z,1018.77
2019-03-28T04:10:19.197Z,1018.80
2019-03-28T04:11:19.200Z,1018.85
2019-03-28T04:12:19.176Z,1018.80
2019-03-28T04:13:19.178Z,1018.83
2019-03-28T04:14:19.196Z,1018.86
2019-03-28T04:15:19.161Z,1018.85
2019-03-28T04:16:19.150Z,1018.84
2019-03-28T04:17:19.125Z,1018.87
2019-03-28T04:18:22.113Z,1018.86
2019-03-28T04:19:19.124Z,1018.86
2019-03-28T04:20:19.122Z,1018.89
2019-03-28T04:21:19.103Z,1018.90
2019-03-28T04:22:19.074Z,1018.86
2019-03-28T04:23:19.055Z,1018.90
2019-03-28T04:24:19.058Z,1018.86
2019-03-28T04:25:19.068Z,1018.88
2019-03-28T04:26:19.027Z,1018.89
2019-03-28T04:27:19.009Z,1018.92
2019-03-28T04:28:30.794Z,1018.90
2019-03-28T04:29:19.995Z,1018.89
2019-03-28T04:30:18.986Z,1018.88
2019-03-28T04:31:18.992Z,1018.92
2019-03-28T04:32:18.959Z,1018.93
2019-03-28T04:33:18.961Z,1018.95
2019-03-28T04:34:18.944Z,1018.94
2019-03-28T04:35:18.924Z,1018.95
2019-03-28T04:36:18.932Z,1018.96
2019-03-28T04:37:18.906Z,1018.93
2019-03-28T04:38:18.898Z,1018.95
2019-03-28T04:39:18.886Z,1018.97
2019-03-28T04:40:18.898Z,1018.94
2019-03-28T04:41:18.862Z,1018.93
2019-03-28T04:42:18.851Z,1018.94
2019-03-28T04:43:18.856Z,1018.96
2019-03-28T04:44:18.842Z,1018.97
2019-03-28T04:45:18.816Z,1018.93
2019-03-28T04:46:18.822Z,1018.94
2019-03-28T04:47:18.795Z,1018.99
2019-03-28T04:48:18.785Z,1018.94
2019-03-28T04:49:18.879Z,1018.97
2019-03-28T04:50:18.799Z,1018.97
2019-03-28T04:51:18.756Z,1018.99
2019-03-28T04:52:19.341Z,1019.04
2019-03-28T04:53:18.736Z,1018.97
2019-03-28T04:54:18.717Z,1019.01
2019-03-28T04:55:18.708Z,1018.96
2019-03-28T04:56:18.719Z,1019.00
2019-03-28T04:57:18.687Z,1019.02
2019-03-28T04:58:21.570Z,1019.01
2019-03-28T04:59:18.662Z,1019.00
2019-03-28T05:00:18.656Z,1019.01
2019-03-28T05:01:18.670Z,1019.00
2019-03-28T05:02:18.636Z,1019.03
2019-03-28T05:03:18.625Z,1019.05
2019-03-28T05:04:21.044Z,1019.10
2019-03-28T05:05:18.599Z,1019.07
2019-03-28T05:06:18.586Z,1019.07
2019-03-28T05:07:18.594Z,1019.11
2019-03-28T05:08:18.569Z,1019.11
2019-03-28T05:09:18.557Z,1019.14
2019-03-28T05:10:18.549Z,1019.11
2019-03-28T05:11:18.554Z,1019.12
2019-03-28T05:12:18.543Z,1019.16
2019-03-28T05:13:18.513Z,1019.18
2019-03-28T05:14:18.510Z,1019.20
2019-03-28T05:15:20.421Z,1019.19
2019-03-28T05:16:18.501Z,1019.19
2019-03-28T05:17:18.468Z,1019.15
2019-03-28T05:18:18.478Z,1019.12
2019-03-28T05:19:18.506Z,1019.14
2019-03-28T05:20:18.485Z,1019.19
2019-03-28T05:21:18.446Z,1019.14
2019-03-28T05:22:18.420Z,1019.13
2019-03-28T05:23:19.596Z,1019.16
2019-03-28T05:24:18.397Z,1019.17
2019-03-28T05:25:18.379Z,1019.15
2019-03-28T05:26:18.392Z,1019.18
2019-03-28T05:27:18.360Z,1019.17
2019-03-28T05:28:18.348Z,1019.20
2019-03-28T05:29:18.345Z,1019.22
2019-03-28T05:30:18.329Z,1019.26
2019-03-28T05:31:18.345Z,1019.23
2019-03-28T05:32:18.305Z,1019.25
2019-03-28T05:33:18.310Z,1019.24
2019-03-28T05:34:18.286Z,1019.25
2019-03-28T05:35:18.275Z,1019.27
2019-03-28T05:36:18.528Z,1019.29
2019-03-28T05:37:18.272Z,1019.31
2019-03-28T05:38:18.245Z,1019.32
2019-03-28T05:39:18.241Z,1019.29
2019-03-28T05:40:18.266Z,1019.33
2019-03-28T05:41:18.252Z,1019.30
2019-03-28T05:42:18.221Z,1019.30
2019-03-28T05:43:18.194Z,1019.35
2019-03-28T05:44:18.179Z,1019.35
2019-03-28T05:45:18.172Z,1019.33
2019-03-28T05:46:18.153Z,1019.30
2019-03-28T05:47:18.171Z,1019.37
2019-03-28T05:48:18.135Z,1019.36
2019-03-28T05:49:18.118Z,1019.34
2019-03-28T05:50:18.110Z,1019.34
2019-03-28T05:51:18.106Z,1019.37
2019-03-28T05:52:18.087Z,1019.34
2019-03-28T05:53:18.100Z,1019.38
2019-03-28T05:54:18.073Z,1019.35
2019-03-28T05:55:18.063Z,1019.32
2019-03-28T05:56:18.049Z,1019.32
2019-03-28T05:57:18.058Z,1019.37
2019-03-28T05:58:18.023Z,1019.31
2019-03-28T05:59:18.013Z,1019.27
2019-03-28T06:00:18.002Z,1019.34
2019-03-28T06:01:17.995Z,1019.31
2019-03-28T06:02:18.022Z,1019.31
2019-03-28T06:03:17.985Z,1019.31
2019-03-28T06:04:17.965Z,1019.30
2019-03-28T06:05:17.952Z,1019.34
2019-03-28T06:06:18.372Z,1019.39
2019-03-28T06:07:17.957Z,1019.34
2019-03-28T06:08:18.012Z,1019.33
2019-03-28T06:09:17.902Z,1019.39
2019-03-28T06:10:18.049Z,1019.35
2019-03-28T06:11:17.940Z,1019.38
2019-03-28T06:12:19.175Z,1019.33
2019-03-28T06:13:17.885Z,1019.35
2019-03-28T06:14:17.871Z,1019.33
2019-03-28T06:15:17.842Z,1019.34
2019-03-28T06:16:17.832Z,1019.37
2019-03-28T06:17:17.856Z,1019.30
2019-03-28T06:18:17.830Z,1019.31
2019-03-28T06:19:17.798Z,1019.29
2019-03-28T06:20:17.788Z,1019.32
2019-03-28T06:21:17.771Z,1019.32
2019-03-28T06:22:17.808Z,1019.33
2019-03-28T06:23:17.799Z,1019.33
2019-03-28T06:24:17.757Z,1019.32
2019-03-28T06:25:17.754Z,1019.29
2019-03-28T06:26:17.722Z,1019.27
2019-03-28T06:27:17.709Z,1019.28
2019-03-28T06:28:17.700Z,1019.31
2019-03-28T06:29:23.715Z,1019.24
2019-03-28T06:30:18.691Z,1019.27
2019-03-28T06:31:17.672Z,1019.27
2019-03-28T06:32:17.655Z,1019.28
2019-03-28T06:33:17.664Z,1019.26
2019-03-28T06:34:17.632Z,1019.27
2019-03-28T06:35:18.284Z,1019.28
2019-03-28T06:36:17.613Z,1019.31
2019-03-28T06:37:17.604Z,1019.30
2019-03-28T06:38:17.622Z,1019.31
2019-03-28T06:39:17.580Z,1019.34
2019-03-28T06:40:17.573Z,1019.35
2019-03-28T06:41:17.562Z,1019.35
2019-03-28T06:42:17.543Z,1019.35
2019-03-28T06:43:17.616Z,1019.29
2019-03-28T06:44:17.571Z,1019.32
2019-03-28T06:45:17.517Z,1019.28
2019-03-28T06:46:17.502Z,1019.29
2019-03-28T06:47:17.492Z,1019.28
2019-03-28T06:48:17.509Z,1019.28
2019-03-28T06:49:17.463Z,1019.28
2019-03-28T06:50:17.481Z,1019.29
2019-03-28T06:51:17.451Z,1019.29
2019-03-28T06:52:17.438Z,1019.28
2019-03-28T06:53:17.421Z,1019.27
2019-03-28T06:54:17.414Z,1019.27
2019-03-28T06:55:17.411Z,1019.29
2019-03-28T06:56:17.580Z,1019.29
2019-03-28T06:57:18.932Z,1019.28
2019-03-28T06:58:17.370Z,1019.20
2019-03-28T06:59:17.379Z,1019.22
2019-03-28T07:00:17.351Z,1019.17
2019-03-28T07:01:17.338Z,1019.16
2019-03-28T07:02:17.470Z,1019.17
2019-03-28T07:03:17.318Z,1019.18
2019-03-28T07:04:17.343Z,1019.20
2019-03-28T07:05:17.349Z,1019.19
2019-03-28T07:06:17.289Z,1019.24
2019-03-28T07:07:18.658Z,1019.20
2019-03-28T07:08:17.258Z,1019.22
2019-03-28T07:09:18.245Z,1019.27
2019-03-28T07:10:17.254Z,1019.27
2019-03-28T07:11:17.237Z,1019.23
2019-03-28T07:12:17.221Z,1019.25
2019-03-28T07:13:17.202Z,1019.23
2019-03-28T07:14:17.216Z,1019.22
2019-03-28T07:15:17.182Z,1019.27
2019-03-28T07:16:17.173Z,1019.25
2019-03-28T07:17:17.260Z,1019.26
2019-03-28T07:18:17.173Z,1019.27
2019-03-28T07:19:17.201Z,1019.29
2019-03-28T07:20:17.168Z,1019.31
2019-03-28T07:21:17.215Z,1019.29
2019-03-28T07:22:17.106Z,1019.28
2019-03-28T07:23:17.097Z,1019.28
2019-03-28T07:24:17.092Z,1019.24
2019-03-28T07:25:17.130Z,1019.32
2019-03-28T07:26:17.123Z,1019.31
2019-03-28T07:27:17.390Z,1019.33
2019-03-28T07:28:17.042Z,1019.30
2019-03-28T07:29:17.034Z,1019.36
2019-03-28T07:30:17.024Z,1019.38
2019-03-28T07:31:17.030Z,1019.36
2019-03-28T07:32:17.003Z,1019.36
2019-03-28T07:33:17.008Z,1019.40
2019-03-28T07:34:16.974Z,1019.39
2019-03-28T07:35:16.982Z,1019.35
2019-03-28T07:36:16.975Z,1019.30
2019-03-28T07:37:16.953Z,1019.36
2019-03-28T07:38:16.936Z,1019.36
2019-03-28T07:39:19.088Z,1019.34
2019-03-28T07:40:16.906Z,1019.37
2019-03-28T07:41:16.911Z,1019.33
2019-03-28T07:42:16.907Z,1019.32
2019-03-28T07:43:16.883Z,1019.36
2019-03-28T07:44:16.888Z,1019.38
2019-03-28T07:45:16.870Z,1019.40
2019-03-28T07:46:16.906Z,1019.38
2019-03-28T07:47:16.913Z,1019.40
2019-03-28T07:48:16.826Z,1019.39
2019-03-28T07:49:16.815Z,1019.42
2019-03-28T07:50:16.803Z,1019.43
2019-03-28T07:51:16.809Z,1019.43
2019-03-28T07:52:19.892Z,1019.45
2019-03-28T07:53:19.721Z,1019.43
2019-03-28T07:54:16.756Z,1019.45
2019-03-28T07:55:16.968Z,1019.41
2019-03-28T07:56:16.738Z,1019.43
2019-03-28T07:57:16.723Z,1019.46
2019-03-28T07:58:16.712Z,1019.48
2019-03-28T07:59:16.712Z,1019.49
2019-03-28T08:00:16.714Z,1019.49
2019-03-28T08:01:18.236Z,1019.56
2019-03-28T08:02:16.670Z,1019.61
2019-03-28T08:03:16.667Z,1019.55
2019-03-28T08:04:16.652Z,1019.58
2019-03-28T08:05:16.641Z,1019.61
2019-03-28T08:06:16.646Z,1019.65
2019-03-28T08:07:16.641Z,1019.64
2019-03-28T08:08:16.624Z,1019.63
2019-03-28T08:09:17.643Z,1019.64
2019-03-28T08:10:16.677Z,1019.63
2019-03-28T08:11:16.611Z,1019.69
2019-03-28T08:12:22.939Z,1019.71
2019-03-28T08:13:17.550Z,1019.69
2019-03-28T08:14:16.545Z,1019.68
2019-03-28T08:15:16.529Z,1019.70
2019-03-28T08:16:16.535Z,1019.69
2019-03-28T08:17:16.500Z,1019.71
2019-03-28T08:18:16.495Z,1019.68
2019-03-28T08:19:16.481Z,1019.67
2019-03-28T08:20:16.467Z,1019.74
2019-03-28T08:21:16.488Z,1019.79
2019-03-28T08:22:16.472Z,1019.78
2019-03-28T08:23:16.456Z,1019.80
2019-03-28T08:24:16.436Z,1019.82
2019-03-28T08:25:16.417Z,1019.81
2019-03-28T08:26:16.500Z,1019.79
2019-03-28T08:27:16.424Z,1019.78
2019-03-28T08:28:16.488Z,1019.80
2019-03-28T08:29:16.479Z,1019.78
2019-03-28T08:30:18.998Z,1019.78
2019-03-28T08:31:16.368Z,1019.79
2019-03-28T08:32:16.353Z,1019.80
2019-03-28T08:33:16.352Z,1019.79
2019-03-28T08:34:16.321Z,1019.77
2019-03-28T08:35:16.313Z,1019.81
2019-03-28T08:36:16.316Z,1019.83
2019-03-28T08:37:16.284Z,1019.86
2019-03-28T08:38:16.276Z,1019.84
2019-03-28T08:39:16.264Z,1019.83
2019-03-28T08:40:16.252Z,1019.83
2019-03-28T08:41:16.272Z,1019.85
2019-03-28T08:42:16.230Z,1019.82
2019-03-28T08:43:16.226Z,1019.80
2019-03-28T08:44:16.203Z,1019.85
2019-03-28T08:45:16.200Z,1019.87
2019-03-28T08:46:16.187Z,1019.93
2019-03-28T08:47:16.192Z,1019.93
2019-03-28T08:48:16.168Z,1019.92
2019-03-28T08:49:16.242Z,1019.91
2019-03-28T08:50:16.146Z,1019.97
2019-03-28T08:51:16.130Z,1019.96
2019-03-28T08:52:16.133Z,1019.95
2019-03-28T08:53:16.113Z,1019.93
2019-03-28T08:54:16.104Z,1019.92
2019-03-28T08:55:16.090Z,1019.93
2019-03-28T08:56:16.133Z,1019.94
2019-03-28T08:57:16.082Z,1019.90
2019-03-28T08:58:16.053Z,1019.88
2019-03-28T08:59:16.062Z,1019.90
2019-03-28T09:00:16.807Z,1019.88
2019-03-28T09:01:16.022Z,1019.92
2019-03-28T09:02:16.031Z,1019.92
2019-03-28T09:03:16.003Z,1019.91
2019-03-28T09:04:15.988Z,1019.96
2019-03-28T09:05:15.983Z,1019.94
2019-03-28T09:06:17.216Z,1019.96
2019-03-28T09:07:17.584Z,1019.98
2019-03-28T09:08:15.949Z,1019.98
2019-03-28T09:09:15.953Z,1020.01
2019-03-28T09:10:15.964Z,1019.97
2019-03-28T09:11:15.911Z,1019.98
2019-03-28T09:12:15.933Z,1019.96
2019-03-28T09:13:15.893Z,1019.99
2019-03-28T09:14:15.887Z,1020.02
2019-03-28T09:15:15.868Z,1019.97
2019-03-28T09:16:15.854Z,1019.95
2019-03-28T09:17:16.285Z,1019.97
2019-03-28T09:18:15.835Z,1019.92
2019-03-28T09:19:15.839Z,1019.96
2019-03-28T09:20:15.842Z,1019.93
2019-03-28T09:21:15.799Z,1019.93
2019-03-28T09:22:15.789Z,1019.96
2019-03-28T09:23:15.870Z,1019.89
2019-03-28T09:24:15.768Z,1019.94
2019-03-28T09:25:15.781Z,1019.94
2019-03-28T09:26:15.748Z,1019.97
2019-03-28T09:27:15.737Z,1020.00
2019-03-28T09:28:15.753Z,1020.01
2019-03-28T09:29:15.730Z,1020.03
2019-03-28T09:30:15.770Z,1020.02
2019-03-28T09:31:20.130Z,1020.04
2019-03-28T09:32:15.685Z,1020.03
2019-03-28T09:33:15.693Z,1020.02
2019-03-28T09:34:15.660Z,1020.01
2019-03-28T09:35:15.653Z,1019.97
2019-03-28T09:36:15.655Z,1019.98
2019-03-28T09:37:15.629Z,1019.95
2019-03-28T09:38:15.634Z,1019.97
2019-03-28T09:39:15.604Z,1020.00
2019-03-28T09:40:15.598Z,1019.95
2019-03-28T09:41:15.614Z,1019.95
2019-03-28T09:42:15.574Z,1019.89
2019-03-28T09:43:15.572Z,1019.95
2019-03-28T09:44:15.557Z,1019.90
2019-03-28T09:45:15.536Z,1019.89
2019-03-28T09:46:15.530Z,1019.90
2019-03-28T09:47:15.536Z,1019.87
2019-03-28T09:48:15.513Z,1019.92
2019-03-28T09:49:15.494Z,1019.93
2019-03-28T09:50:15.490Z,1019.97
2019-03-28T09:51:15.531Z,1019.93
2019-03-28T09:52:15.503Z,1019.95
2019-03-28T09:53:15.459Z,1019.92
2019-03-28T09:54:15.446Z,1019.95
2019-03-28T09:55:18.659Z,1019.92
2019-03-28T09:56:15.446Z,1019.97
2019-03-28T09:57:15.412Z,1019.97
2019-03-28T09:58:15.401Z,1019.95
2019-03-28T09:59:15.388Z,1020.00
2019-03-28T10:00:15.375Z,1019.97
2019-03-28T10:01:15.393Z,1019.99
2019-03-28T10:02:15.365Z,1019.97
2019-03-28T10:03:15.358Z,1019.99
2019-03-28T10:04:15.366Z,1019.95
2019-03-28T10:05:15.330Z,1019.90
2019-03-28T10:06:15.319Z,1019.92
2019-03-28T10:07:15.305Z,1019.91
2019-03-28T10:08:15.295Z,1019.89
2019-03-28T10:09:15.293Z,1019.88
2019-03-28T10:10:15.277Z,1019.91
2019-03-28T10:11:15.279Z,1019.88
2019-03-28T10:12:15.286Z,1019.91
2019-03-28T10:13:15.289Z,1019.92
2019-03-28T10:14:15.242Z,1019.90
2019-03-28T10:15:15.215Z,1019.91
2019-03-28T10:16:15.208Z,1019.89
2019-03-28T10:17:15.190Z,1019.86
2019-03-28T10:18:15.206Z,1019.86
2019-03-28T10:19:15.185Z,1019.86
2019-03-28T10:20:15.178Z,1019.87
2019-03-28T10:21:15.143Z,1019.86
2019-03-28T10:22:15.140Z,1019.83
2019-03-28T10:23:15.122Z,1019.84
2019-03-28T10:24:15.127Z,1019.83
2019-03-28T10:25:15.106Z,1019.87
2019-03-28T10:26:15.094Z,1019.91
2019-03-28T10:27:15.100Z,1019.86
2019-03-28T10:28:15.073Z,1019.86
2019-03-28T10:29:15.072Z,1019.84
2019-03-28T10:30:15.049Z,1019.89
2019-03-28T10:31:16.563Z,1019.80
2019-03-28T10:32:15.023Z,1019.85
2019-03-28T10:33:15.086Z,1019.84
2019-03-28T10:34:15.056Z,1019.84
2019-03-28T10:35:15.010Z,1019.86
2019-03-28T10:36:14.979Z,1019.90
2019-03-28T10:37:14.982Z,1019.89
2019-03-28T10:38:14.964Z,1019.90
2019-03-28T10:39:14.950Z,1019.89
2019-03-28T10:40:14.958Z,1019.86
2019-03-28T10:41:14.923Z,1019.84
2019-03-28T10:42:14.925Z,1019.90
2019-03-28T10:43:14.907Z,1019.86
2019-03-28T10:44:14.897Z,1019.90
2019-03-28T10:45:14.906Z,1019.88
2019-03-28T10:46:14.873Z,1019.92
2019-03-28T10:47:14.879Z,1019.92
2019-03-28T10:48:14.855Z,1019.94
2019-03-28T10:49:15.675Z,1019.90
2019-03-28T10:50:14.833Z,1019.88
2019-03-28T10:51:14.819Z,1019.80
2019-03-28T10:52:14.834Z,1019.89
2019-03-28T10:53:14.829Z,1019.86
2019-03-28T10:54:20.375Z,1019.87
2019-03-28T10:55:16.653Z,1019.88
2019-03-28T10:56:21.519Z,1019.83
2019-03-28T10:57:29.370Z,1019.88
2019-03-28T10:58:19.629Z,1019.82
2019-03-28T10:59:23.118Z,1019.81
2019-03-28T11:00:23.967Z,1019.85
2019-03-28T11:01:16.779Z,1019.88
2019-03-28T11:02:15.721Z,1019.91
2019-03-28T11:03:14.694Z,1019.86
2019-03-28T11:04:14.675Z,1019.93
2019-03-28T11:05:14.773Z,1019.88
2019-03-28T11:06:14.658Z,1019.89
2019-03-28T11:07:14.645Z,1019.85
2019-03-28T11:08:14.662Z,1019.84
2019-03-28T11:09:14.631Z,1019.87
2019-03-28T11:10:14.612Z,1019.87
2019-03-28T11:11:14.601Z,1019.89
2019-03-28T11:12:14.604Z,1019.88
2019-03-28T11:13:14.576Z,1019.88
2019-03-28T11:14:14.617Z,1019.85
2019-03-28T11:15:14.567Z,1019.86
2019-03-28T11:16:15.239Z,1019.82
2019-03-28T11:17:14.539Z,1019.84
2019-03-28T11:18:14.534Z,1019.79
2019-03-28T11:19:15.994Z,1019.75
2019-03-28T11:20:14.531Z,1019.72
2019-03-28T11:21:14.490Z,1019.74
2019-03-28T11:22:14.489Z,1019.72
2019-03-28T11:23:14.484Z,1019.73
2019-03-28T11:24:14.462Z,1019.79
2019-03-28T11:25:14.447Z,1019.79
2019-03-28T11:26:14.672Z,1019.83
2019-03-28T11:27:14.429Z,1019.89
2019-03-28T11:28:14.430Z,1019.85
2019-03-28T11:29:14.410Z,1019.90
2019-03-28T11:30:14.398Z,1019.87
2019-03-28T11:31:14.402Z,1019.89
2019-03-28T11:32:15.521Z,1019.92
2019-03-28T11:33:14.498Z,1019.84
2019-03-28T11:34:15.635Z,1019.85
2019-03-28T11:35:15.663Z,1019.87
2019-03-28T11:36:15.670Z,1019.84
2019-03-28T11:37:25.295Z,1019.87
2019-03-28T11:38:15.797Z,1019.87
2019-03-28T11:39:15.031Z,1019.88
2019-03-28T11:40:15.572Z,1019.88
2019-03-28T11:41:15.370Z,1019.84
2019-03-28T11:42:15.582Z,1019.86
2019-03-28T11:43:14.821Z,1019.84
2019-03-28T11:44:14.711Z,1019.87
2019-03-28T11:45:14.229Z,1019.90
2019-03-28T11:46:14.219Z,1019.93
2019-03-28T11:47:14.226Z,1019.95
2019-03-28T11:48:14.214Z,1019.90
2019-03-28T11:49:14.197Z,1019.89
2019-03-28T11:50:16.945Z,1019.85
2019-03-28T11:51:14.167Z,1019.86
2019-03-28T11:52:14.159Z,1019.85
2019-03-28T11:53:14.160Z,1019.85
2019-03-28T11:54:14.132Z,1019.84
2019-03-28T11:55:14.126Z,1019.77
2019-03-28T11:56:14.138Z,1019.82
2019-03-28T11:57:15.811Z,1019.80
2019-03-28T11:58:14.089Z,1019.82
2019-03-28T11:59:14.079Z,1019.81
2019-03-28T12:00:14.064Z,1019.83
2019-03-28T12:01:14.059Z,1019.85
2019-03-28T12:02:20.333Z,1019.84
2019-03-28T12:03:15.035Z,1019.79
2019-03-28T12:04:14.026Z,1019.80
2019-03-28T12:05:14.012Z,1019.79